Allentown, New Jersey
Current Conditions -  °F | °C
As of 2:58 AM on Thursday 27 Nov 2014 (Local Time) from KWRI Reporting Station
Overcast Overcast  
Wind Chill: 29°   Ceiling: 6000
Heat Index: 35°   Visibility: 10mi
Dew Point: 32°   Wind: 6mph
Humidity: 92%   Direction: 270°W
Pressure: 29.92"   Gusts: NA
Location:  40.18°N, 74.58°W
Report Text: KWRI 270758Z AUTO 27005KT 10SM FEW043 OVC060 01/00 A2992 RMK AO2 UPE0715 SLP136 P0000 T00140002
Loading
Personal Weather Stations






























Interactive Weather Map New forecast layout! Learn more

10-Day Weather Forecast

Advertisements
Track Severe Weather on mobile